Time,TemperatureF,DewpointF,PressureIn,WindDirection,WindDirectionDegrees,WindSpeedMPH,WindSpeedGustMPH,Humidity,HourlyPrecipIn,Conditions,Clouds,dailyrainin,SoftwareType,DateUTC
2013-11-08 00:14:00,33.8,32.0,29.94,NE,40,0.0,0.0,93,0.00,,,0.14,weatherlink.com 1.10,2013-11-08 05:14:00,
2013-11-08 00:29:00,33.6,32.0,29.94,NE,40,0.0,0.0,93,0.00,,,0.14,weatherlink.com 1.10,2013-11-08 05:29:00,
2013-11-08 00:44:00,33.6,32.0,29.94,NE,40,0.0,1.0,92,0.00,,,0.14,weatherlink.com 1.10,2013-11-08 05:44:00,
2013-11-08 00:59:00,33.5,32.0,29.95,NE,40,0.0,0.0,93,0.00,,,0.14,weatherlink.com 1.10,2013-11-08 05:59:00,
2013-11-08 01:14:00,33.4,32.0,29.95,NE,41,0.0,0.0,93,0.00,,,0.14,weatherlink.com 1.10,2013-11-08 06:14:00,
2013-11-08 01:29:00,33.4,32.0,29.95,NE,44,0.0,0.0,93,0.00,,,0.14,weatherlink.com 1.10,2013-11-08 06:29:00,
2013-11-08 01:44:00,33.3,32.0,29.95,NE,44,0.0,0.0,93,0.00,,,0.14,weatherlink.com 1.10,2013-11-08 06:44:00,
2013-11-08 01:59:00,33.7,31.0,29.95,SSE,158,0.0,0.0,91,0.00,,,0.14,weatherlink.com 1.10,2013-11-08 06:59:00,
2013-11-08 02:14:00,35.1,32.0,29.95,SW,218,0.0,0.0,89,0.00,,,0.14,weatherlink.com 1.10,2013-11-08 07:14:00,
2013-11-08 02:29:00,35.9,31.0,29.95,South,187,0.0,1.0,83,0.00,,,0.14,weatherlink.com 1.10,2013-11-08 07:29:00,
2013-11-08 02:44:00,36.5,32.0,29.96,SSE,153,0.0,1.0,82,0.00,,,0.00,weatherlink.com 1.10,2013-11-08 07:44:00,
2013-11-08 02:59:00,37.2,33.0,29.96,SSE,158,0.0,2.0,83,0.00,,,0.00,weatherlink.com 1.10,2013-11-08 07:59:00,
2013-11-08 03:14:00,37.9,31.0,29.96,SSE,158,0.0,2.0,76,0.00,,,0.00,weatherlink.com 1.10,2013-11-08 08:14:00,
2013-11-08 03:29:00,38.5,32.0,29.96,ESE,103,0.0,1.0,77,0.00,,,0.00,weatherlink.com 1.10,2013-11-08 08:29:00,
2013-11-08 03:44:00,38.7,31.0,29.96,SSE,153,0.0,1.0,75,0.00,,,0.00,weatherlink.com 1.10,2013-11-08 08:44:00,
2013-11-08 03:59:00,38.6,32.0,29.96,WNW,289,0.0,1.0,78,0.00,,,0.00,weatherlink.com 1.10,2013-11-08 08:59:00,
2013-11-08 04:14:00,38.8,33.0,29.96,SSE,163,0.0,3.0,78,0.00,,,0.00,weatherlink.com 1.10,2013-11-08 09:14:00,
2013-11-08 04:29:00,39.1,31.0,29.97,WNW,302,0.0,4.0,73,0.00,,,0.00,weatherlink.com 1.10,2013-11-08 09:29:00,
2013-11-08 04:45:00,39.5,33.0,29.97,SSE,161,2.0,2.0,76,0.00,,,0.00,weatherlink.com 1.10,2013-11-08 09:45:00,
2013-11-08 05:00:00,36.6,32.0,29.98,SSE,150,0.0,2.0,82,0.00,,,0.00,weatherlink.com 1.10,2013-11-08 10:00:00,
2013-11-08 05:15:00,35.5,31.0,29.98,SSE,152,0.0,2.0,84,0.00,,,0.00,weatherlink.com 1.10,2013-11-08 10:15:00,
2013-11-08 05:30:00,35.4,31.0,29.98,SSE,155,0.0,2.0,85,0.00,,,0.00,weatherlink.com 1.10,2013-11-08 10:30:00,
2013-11-08 05:45:00,35.4,31.0,29.98,North,350,0.0,2.0,85,0.00,,,0.00,weatherlink.com 1.10,2013-11-08 10:45:00,
2013-11-08 06:00:00,37.7,32.0,29.98,SSE,166,0.0,4.0,80,0.00,,,0.00,weatherlink.com 1.10,2013-11-08 11:00:00,
2013-11-08 06:15:00,38.9,31.0,29.98,SE,146,0.0,3.0,74,0.00,,,0.00,weatherlink.com 1.10,2013-11-08 11:15:00,
2013-11-08 06:30:00,39.6,31.0,29.99,NW,319,1.0,3.0,72,0.00,,,0.00,weatherlink.com 1.10,2013-11-08 11:30:00,
2013-11-08 06:45:00,39.7,32.0,29.99,SE,143,1.0,2.0,74,0.00,,,0.00,weatherlink.com 1.10,2013-11-08 11:45:00,
2013-11-08 07:00:00,40.1,30.0,30.00,South,190,1.0,2.0,68,0.00,,,0.00,weatherlink.com 1.10,2013-11-08 12:00:00,
2013-11-08 07:15:00,40.2,32.0,30.00,WNW,288,1.0,4.0,72,0.00,,,0.00,weatherlink.com 1.10,2013-11-08 12:15:00,
2013-11-08 07:30:00,40.7,30.0,30.01,SSW,198,0.0,5.0,67,0.00,,,0.00,weatherlink.com 1.10,2013-11-08 12:30:00,
2013-11-08 07:45:00,40.9,31.0,30.02,SSE,158,0.0,2.0,67,0.00,,,0.00,weatherlink.com 1.10,2013-11-08 12:45:00,
2013-11-08 08:00:00,41.1,30.0,30.03,NNW,329,2.0,4.0,65,0.00,,,0.00,weatherlink.com 1.10,2013-11-08 13:00:00,
2013-11-08 08:15:00,41.0,30.0,30.03,North,4,0.0,4.0,64,0.00,,,0.00,weatherlink.com 1.10,2013-11-08 13:15:00,
2013-11-08 08:30:00,41.3,29.0,30.03,South,169,0.0,5.0,63,0.00,,,0.00,weatherlink.com 1.10,2013-11-08 13:30:00,
2013-11-08 08:45:00,41.2,30.0,30.04,WNW,301,2.0,3.0,65,0.00,,,0.00,weatherlink.com 1.10,2013-11-08 13:45:00,
2013-11-08 09:00:00,41.1,30.0,30.04,South,186,0.0,2.0,64,0.00,,,0.00,weatherlink.com 1.10,2013-11-08 14:00:00,
2013-11-08 09:15:00,42.4,31.0,30.04,SSW,203,0.0,5.0,64,0.00,,,0.00,weatherlink.com 1.10,2013-11-08 14:15:00,
2013-11-08 09:30:00,43.2,30.0,30.04,ESE,116,0.0,4.0,60,0.00,,,0.00,weatherlink.com 1.10,2013-11-08 14:30:00,
2013-11-08 09:45:00,44.1,30.0,30.04,SSE,163,0.0,4.0,59,0.00,,,0.00,weatherlink.com 1.10,2013-11-08 14:45:00,
2013-11-08 10:00:00,45.1,30.0,30.04,WSW,256,0.0,5.0,57,0.00,,,0.00,weatherlink.com 1.10,2013-11-08 15:00:00,
2013-11-08 10:15:00,45.7,30.0,30.03,WNW,298,1.0,5.0,54,0.00,,,0.00,weatherlink.com 1.10,2013-11-08 15:15:00,
2013-11-08 10:30:00,44.8,29.0,30.03,NW,315,1.0,5.0,55,0.00,,,0.00,weatherlink.com 1.10,2013-11-08 15:30:00,
2013-11-08 10:45:00,44.5,29.0,30.04,NW,314,1.0,5.0,55,0.00,,,0.00,weatherlink.com 1.10,2013-11-08 15:45:00,
2013-11-08 11:00:00,45.1,30.0,30.04,NW,309,2.0,5.0,57,0.00,,,0.00,weatherlink.com 1.10,2013-11-08 16:00:00,
2013-11-08 11:15:00,45.4,28.0,30.04,WNW,295,3.0,6.0,51,0.00,,,0.00,weatherlink.com 1.10,2013-11-08 16:15:00,
2013-11-08 11:30:00,44.9,29.0,30.04,WNW,302,4.0,5.0,55,0.00,,,0.00,weatherlink.com 1.10,2013-11-08 16:30:00,
2013-11-08 11:45:00,44.6,29.0,30.04,NW,309,1.0,5.0,55,0.00,,,0.00,weatherlink.com 1.10,2013-11-08 16:45:00,
2013-11-08 12:00:00,45.3,30.0,30.04,South,186,2.0,5.0,56,0.00,,,0.00,weatherlink.com 1.10,2013-11-08 17:00:00,
2013-11-08 12:15:00,45.2,31.0,30.04,South,172,2.0,5.0,57,0.00,,,0.00,weatherlink.com 1.10,2013-11-08 17:15:00,
2013-11-08 12:30:00,45.2,31.0,30.04,SSE,164,1.0,5.0,59,0.00,,,0.00,weatherlink.com 1.10,2013-11-08 17:30:00,
2013-11-08 12:45:00,45.9,32.0,30.05,WNW,293,1.0,4.0,58,0.00,,,0.00,weatherlink.com 1.10,2013-11-08 17:45:00,
2013-11-08 13:00:00,44.1,33.0,30.05,SSE,155,1.0,11.0,66,0.00,,,0.00,weatherlink.com 1.10,2013-11-08 18:00:00,
2013-11-08 13:15:00,44.1,32.0,30.05,ENE,68,1.0,4.0,63,0.00,,,0.00,weatherlink.com 1.10,2013-11-08 18:15:00,
2013-11-08 13:30:00,45.3,32.0,30.06,SW,221,1.0,7.0,61,0.00,,,0.00,weatherlink.com 1.10,2013-11-08 18:30:00,
2013-11-08 13:46:00,43.7,33.0,30.07,WSW,238,1.0,14.0,67,0.00,,,0.00,weatherlink.com 1.10,2013-11-08 18:46:00,
2013-11-08 14:01:00,41.0,35.0,30.07,North,349,0.0,3.0,78,0.01,,,0.01,weatherlink.com 1.10,2013-11-08 19:01:00,
2013-11-08 14:16:00,42.4,35.0,30.07,SE,143,0.0,1.0,76,0.01,,,0.01,weatherlink.com 1.10,2013-11-08 19:16:00,
2013-11-08 14:31:00,42.3,34.0,30.08,SW,226,0.0,2.0,72,0.01,,,0.01,weatherlink.com 1.10,2013-11-08 19:31:00,
2013-11-08 14:46:00,43.0,32.0,30.08,North,4,0.0,3.0,66,0.01,,,0.01,weatherlink.com 1.10,2013-11-08 19:46:00,
2013-11-08 15:01:00,44.0,31.0,30.09,SW,234,0.0,4.0,60,0.00,,,0.01,weatherlink.com 1.10,2013-11-08 20:01:00,
2013-11-08 15:16:00,43.7,30.0,30.09,SSE,155,1.0,3.0,60,0.00,,,0.01,weatherlink.com 1.10,2013-11-08 20:16:00,
2013-11-08 15:31:00,43.4,31.0,30.09,NW,309,2.0,3.0,61,0.00,,,0.01,weatherlink.com 1.10,2013-11-08 20:31:00,
2013-11-08 15:46:00,43.0,31.0,30.10,WNW,288,2.0,5.0,63,0.00,,,0.01,weatherlink.com 1.10,2013-11-08 20:46:00,
2013-11-08 16:01:00,42.7,30.0,30.11,WNW,294,1.0,4.0,60,0.00,,,0.01,weatherlink.com 1.10,2013-11-08 21:01:00,
2013-11-08 16:16:00,41.9,32.0,30.12,SSW,200,2.0,5.0,67,0.00,,,0.01,weatherlink.com 1.10,2013-11-08 21:16:00,
2013-11-08 16:31:00,40.9,33.0,30.13,SSE,160,0.0,2.0,72,0.00,,,0.01,weatherlink.com 1.10,2013-11-08 21:31:00,
2013-11-08 16:46:00,39.9,33.0,30.14,SSE,166,0.0,1.0,75,0.00,,,0.01,weatherlink.com 1.10,2013-11-08 21:46:00,
2013-11-08 17:01:00,39.2,31.0,30.14,SSE,153,0.0,0.0,73,0.00,,,0.01,weatherlink.com 1.10,2013-11-08 22:01:00,
2013-11-08 17:16:00,39.3,32.0,30.14,ESE,104,0.0,1.0,76,0.00,,,0.01,weatherlink.com 1.10,2013-11-08 22:16:00,
2013-11-08 17:31:00,39.6,32.0,30.15,ENE,73,0.0,1.0,73,0.00,,,0.01,weatherlink.com 1.10,2013-11-08 22:31:00,
2013-11-08 17:46:00,39.6,31.0,30.15,SE,138,0.0,3.0,70,0.00,,,0.01,weatherlink.com 1.10,2013-11-08 22:46:00,
2013-11-08 18:01:00,39.2,31.0,30.16,ESE,120,0.0,0.0,71,0.00,,,0.01,weatherlink.com 1.10,2013-11-08 23:01:00,
2013-11-08 18:31:00,39.1,31.0,30.17,SSE,148,0.0,2.0,72,0.00,,,0.01,weatherlink.com 1.10,2013-11-08 23:31:00,
2013-11-08 18:46:00,39.5,31.0,30.17,NNW,340,0.0,3.0,72,0.00,,,0.01,weatherlink.com 1.10,2013-11-08 23:46:00,
2013-11-08 19:01:00,39.9,30.0,30.17,South,188,1.0,3.0,69,0.00,,,0.01,weatherlink.com 1.10,2013-11-09 00:01:00,
2013-11-08 19:31:00,40.3,31.0,30.18,SSE,147,0.0,2.0,70,0.00,,,0.01,weatherlink.com 1.10,2013-11-09 00:31:00,
2013-11-08 19:46:00,40.4,31.0,30.18,WNW,287,0.0,4.0,69,0.00,,,0.01,weatherlink.com 1.10,2013-11-09 00:46:00,
2013-11-08 20:01:00,40.1,32.0,30.19,SE,129,0.0,1.0,72,0.00,,,0.01,weatherlink.com 1.10,2013-11-09 01:01:00,
2013-11-08 20:16:00,39.6,31.0,30.20,SSE,153,0.0,1.0,71,0.00,,,0.01,weatherlink.com 1.10,2013-11-09 01:16:00,
2013-11-08 20:31:00,38.8,30.0,30.20,SSE,154,0.0,0.0,72,0.00,,,0.01,weatherlink.com 1.10,2013-11-09 01:31:00,
2013-11-08 20:46:00,37.8,31.0,30.20,SSE,153,0.0,0.0,75,0.00,,,0.01,weatherlink.com 1.10,2013-11-09 01:46:00,
2013-11-08 21:01:00,37.5,31.0,30.20,SSE,153,0.0,0.0,78,0.00,,,0.01,weatherlink.com 1.10,2013-11-09 02:01:00,
2013-11-08 21:16:00,37.7,31.0,30.20,SSE,153,0.0,0.0,77,0.00,,,0.01,weatherlink.com 1.10,2013-11-09 02:16:00,
2013-11-08 21:31:00,38.1,31.0,30.20,SSE,154,0.0,1.0,76,0.00,,,0.01,weatherlink.com 1.10,2013-11-09 02:31:00,
2013-11-08 21:46:00,38.2,31.0,30.20,SSE,153,0.0,0.0,75,0.00,,,0.01,weatherlink.com 1.10,2013-11-09 02:46:00,
2013-11-08 22:01:00,38.2,31.0,30.21,SSE,153,0.0,0.0,75,0.00,,,0.01,weatherlink.com 1.10,2013-11-09 03:01:00,
2013-11-08 22:16:00,38.1,30.0,30.21,SSE,153,0.0,1.0,73,0.00,,,0.01,weatherlink.com 1.10,2013-11-09 03:16:00,
2013-11-08 22:31:00,38.2,31.0,30.20,SSE,153,0.0,0.0,74,0.00,,,0.01,weatherlink.com 1.10,2013-11-09 03:31:00,
2013-11-08 22:46:00,38.3,31.0,30.21,SSE,153,0.0,1.0,74,0.00,,,0.01,weatherlink.com 1.10,2013-11-09 03:46:00,
2013-11-08 23:01:00,38.4,31.0,30.20,SSE,153,0.0,0.0,74,0.00,,,0.01,weatherlink.com 1.10,2013-11-09 04:01:00,
2013-11-08 23:16:00,38.4,31.0,30.21,SSE,153,0.0,1.0,76,0.00,,,0.01,weatherlink.com 1.10,2013-11-09 04:16:00,
2013-11-08 23:31:00,38.5,31.0,30.21,SSE,153,0.0,0.0,75,0.00,,,0.01,weatherlink.com 1.10,2013-11-09 04:31:00,
2013-11-08 23:46:00,38.8,31.0,30.21,SSE,153,0.0,0.0,74,0.00,,,0.01,weatherlink.com 1.10,2013-11-09 04:46:00,